Terminal Aerodrome Forecast
Issued by NWS Wilmington, OH

Current Version | Previous Version | Text Only | Print | Product List | Glossary Off
Versions: 1 2 3 4 5 6 7 8 9 10 11 12 13 14 15 16 17

000
FTUS41 KILN 250500
TAFCMH
TAF
KCMH 250530Z 2506/2606 24008KT P6SM VCSH OVC050
      TEMPO 2506/2508 P6SM BKN030
     FM250900 27007KT P6SM SCT040
     FM251200 VRB03KT P6SM SKC
     FM252000 03005KT P6SM BKN200
     FM260300 03007KT P6SM OVC080=

USA.gov is the U.S. government's official web portal to all federal, state and local government web resources and services.